createdAt,value
2022-08-29T00:01:05.316Z,7.27
2022-08-29T00:03:38.748Z,5.83
2022-08-29T00:06:11.056Z,5.90
2022-08-29T00:08:40.726Z,6.00
2022-08-29T00:11:10.572Z,5.20
2022-08-29T00:13:40.249Z,6.43
2022-08-29T00:16:10.022Z,6.23
2022-08-29T00:18:42.984Z,6.10
2022-08-29T00:21:12.621Z,6.23
2022-08-29T00:23:42.549Z,5.50
2022-08-29T00:26:12.186Z,5.67
2022-08-29T00:28:41.873Z,5.80
2022-08-29T00:31:11.551Z,6.20
2022-08-29T00:33:43.882Z,7.33
2022-08-29T00:36:13.666Z,6.10
2022-08-29T00:38:43.486Z,6.03
2022-08-29T00:41:13.565Z,5.90
2022-08-29T00:43:43.245Z,5.87
2022-08-29T00:46:34.677Z,5.70
2022-08-29T00:49:11.782Z,5.80
2022-08-29T00:51:43.263Z,6.10
2022-08-29T00:54:14.566Z,5.70
2022-08-29T00:56:45.762Z,6.00
2022-08-29T00:59:19.493Z,6.00
2022-08-29T01:01:49.900Z,5.67
2022-08-29T01:04:24.307Z,5.70
2022-08-29T01:06:55.791Z,6.43
2022-08-29T01:09:26.444Z,6.77
2022-08-29T01:12:09.139Z,6.37
2022-08-29T01:14:39.235Z,7.40
2022-08-29T01:17:11.266Z,7.13
2022-08-29T01:19:49.934Z,6.27
2022-08-29T01:22:33.846Z,7.13
2022-08-29T01:25:10.193Z,6.17
2022-08-29T01:27:43.297Z,6.70
2022-08-29T01:30:15.253Z,5.80
2022-08-29T01:32:45.443Z,5.30
2022-08-29T01:35:15.714Z,6.07
2022-08-29T01:37:47.098Z,5.70
2022-08-29T01:40:19.550Z,5.60
2022-08-29T01:42:49.231Z,6.00
2022-08-29T01:45:20.034Z,6.33
2022-08-29T01:47:50.522Z,5.23
2022-08-29T01:50:20.362Z,5.40
2022-08-29T01:52:50.142Z,5.80
2022-08-29T01:55:22.595Z,5.67
2022-08-29T01:57:52.208Z,5.40
2022-08-29T02:00:25.888Z,5.90
2022-08-29T02:02:56.823Z,5.70
2022-08-29T02:05:26.437Z,5.50
2022-08-29T02:07:56.151Z,5.63
2022-08-29T02:10:28.589Z,5.53
2022-08-29T02:12:58.365Z,5.60
2022-08-29T02:15:28.038Z,6.07
2022-08-29T02:17:57.628Z,5.73
2022-08-29T02:20:27.497Z,5.30
2022-08-29T02:22:57.142Z,5.10
2022-08-29T02:25:46.603Z,5.33
2022-08-29T02:28:20.829Z,5.20
2022-08-29T02:30:56.589Z,5.87
2022-08-29T02:33:27.356Z,5.63
2022-08-29T02:35:58.697Z,5.87
2022-08-29T02:38:29.586Z,5.13
2022-08-29T02:41:02.459Z,5.70
2022-08-29T02:43:32.275Z,6.80
2022-08-29T02:46:02.386Z,5.33
2022-08-29T02:48:32.070Z,5.50
2022-08-29T02:51:01.806Z,5.33
2022-08-29T02:53:34.074Z,5.80
2022-08-29T02:56:06.510Z,5.63
2022-08-29T02:58:39.757Z,6.17
2022-08-29T03:01:09.599Z,5.37
2022-08-29T03:03:39.281Z,5.00
2022-08-29T03:06:09.592Z,5.53
2022-08-29T03:08:39.495Z,5.40
2022-08-29T03:11:11.799Z,5.03
2022-08-29T03:13:41.481Z,5.30
2022-08-29T03:16:11.593Z,5.03
2022-08-29T03:18:41.635Z,5.17
2022-08-29T03:21:17.512Z,5.13
2022-08-29T03:23:47.161Z,4.43
2022-08-29T03:26:19.666Z,4.87
2022-08-29T03:28:49.648Z,5.60
2022-08-29T03:31:19.487Z,5.10
2022-08-29T03:33:49.287Z,4.80
2022-08-29T03:36:19.010Z,5.63
2022-08-29T03:38:49.343Z,5.00
2022-08-29T03:41:27.422Z,5.87
2022-08-29T03:43:58.989Z,5.37
2022-08-29T03:46:29.481Z,5.47
2022-08-29T03:48:59.175Z,5.57
2022-08-29T03:51:31.302Z,5.10
2022-08-29T03:54:01.136Z,5.23
2022-08-29T03:56:34.394Z,4.83
2022-08-29T03:59:04.067Z,5.30
2022-08-29T04:01:33.813Z,5.33
2022-08-29T04:04:03.500Z,5.87
2022-08-29T04:06:33.918Z,5.07
2022-08-29T04:09:03.794Z,5.40
2022-08-29T04:11:36.470Z,5.07
2022-08-29T04:14:06.222Z,5.20
2022-08-29T04:16:36.046Z,4.90
2022-08-29T04:19:05.730Z,5.53
2022-08-29T04:21:38.542Z,4.80
2022-08-29T04:24:08.748Z,5.27
2022-08-29T04:26:41.663Z,4.70
2022-08-29T04:29:13.883Z,4.90
2022-08-29T04:31:45.647Z,5.20
2022-08-29T04:34:15.960Z,5.90
2022-08-29T04:36:47.273Z,5.17
2022-08-29T04:39:18.188Z,5.60
2022-08-29T04:41:50.538Z,5.17
2022-08-29T04:44:20.193Z,5.83
2022-08-29T04:46:49.865Z,5.43
2022-08-29T04:49:20.059Z,5.43
2022-08-29T04:51:49.975Z,5.80
2022-08-29T04:54:19.669Z,4.27
2022-08-29T04:56:52.167Z,5.00
2022-08-29T04:59:27.061Z,4.80
2022-08-29T05:01:57.671Z,5.57
2022-08-29T05:04:27.958Z,5.40
2022-08-29T05:06:58.685Z,5.60
2022-08-29T05:09:28.370Z,6.80
2022-08-29T05:12:00.654Z,5.30
2022-08-29T05:14:35.174Z,5.27
2022-08-29T05:17:04.827Z,5.37
2022-08-29T05:19:36.543Z,4.87
2022-08-29T05:22:16.655Z,4.80
2022-08-29T05:24:49.036Z,6.10
2022-08-29T05:27:23.129Z,4.57
2022-08-29T05:29:55.117Z,5.17
2022-08-29T05:32:27.080Z,4.90
2022-08-29T05:34:57.726Z,5.03
2022-08-29T05:37:28.978Z,4.73
2022-08-29T05:39:59.010Z,5.03
2022-08-29T05:42:31.906Z,5.30
2022-08-29T05:45:01.622Z,5.47
2022-08-29T05:47:35.320Z,4.90
2022-08-29T05:50:07.427Z,5.30
2022-08-29T05:52:38.179Z,6.30
2022-08-29T05:55:08.768Z,5.20
2022-08-29T05:57:42.090Z,4.83
2022-08-29T06:00:13.282Z,4.17
2022-08-29T06:02:43.093Z,4.77
2022-08-29T06:05:13.316Z,5.33
2022-08-29T06:07:43.007Z,4.67
2022-08-29T06:10:12.957Z,5.30
2022-08-29T06:12:46.225Z,4.80
2022-08-29T06:15:16.962Z,4.53
2022-08-29T06:17:46.661Z,4.47
2022-08-29T06:20:16.518Z,4.60
2022-08-29T06:22:46.187Z,4.70
2022-08-29T06:25:37.993Z,4.47
2022-08-29T06:28:09.983Z,4.40
2022-08-29T06:30:41.281Z,4.97
2022-08-29T06:33:12.051Z,4.70
2022-08-29T06:35:43.731Z,4.30
2022-08-29T06:38:15.782Z,5.20
2022-08-29T06:40:45.606Z,4.33
2022-08-29T06:43:18.103Z,4.40
2022-08-29T06:45:47.818Z,4.30
2022-08-29T06:48:22.925Z,4.60
2022-08-29T06:50:56.478Z,4.23
2022-08-29T06:53:31.900Z,4.70
2022-08-29T06:56:11.042Z,3.90
2022-08-29T06:58:45.187Z,4.83
2022-08-29T07:01:17.689Z,5.37
2022-08-29T07:03:49.083Z,4.60
2022-08-29T07:06:20.591Z,4.00
2022-08-29T07:08:55.759Z,4.40
2022-08-29T07:11:26.363Z,4.40
2022-08-29T07:13:59.974Z,4.37
2022-08-29T07:16:30.898Z,3.97
2022-08-29T07:19:04.241Z,4.43
2022-08-29T07:21:34.538Z,5.60
2022-08-29T07:24:06.289Z,3.80
2022-08-29T07:26:41.446Z,4.43
2022-08-29T07:29:18.229Z,4.17
2022-08-29T07:31:48.542Z,4.50
2022-08-29T07:34:20.520Z,4.40
2022-08-29T07:36:51.680Z,4.50
2022-08-29T07:39:24.159Z,4.90
2022-08-29T07:41:54.946Z,4.67
2022-08-29T07:44:33.148Z,4.63
2022-08-29T07:47:04.382Z,4.70
2022-08-29T07:49:41.138Z,4.60
2022-08-29T07:52:11.713Z,4.00
2022-08-29T07:54:41.438Z,4.73
2022-08-29T07:57:14.974Z,4.80
2022-08-29T07:59:48.241Z,4.57
2022-08-29T08:02:22.222Z,4.90
2022-08-29T08:04:52.406Z,4.27
2022-08-29T08:07:29.342Z,4.57
2022-08-29T08:10:00.413Z,3.93
2022-08-29T08:12:30.247Z,4.87
2022-08-29T08:15:03.580Z,4.60
2022-08-29T08:17:35.861Z,5.70
2022-08-29T08:20:08.031Z,4.60
2022-08-29T08:22:40.825Z,5.80
2022-08-29T08:25:14.138Z,6.03
2022-08-29T08:27:44.011Z,5.30
2022-08-29T08:30:18.914Z,4.83
2022-08-29T08:32:54.985Z,5.63
2022-08-29T08:35:25.760Z,6.57
2022-08-29T08:37:57.694Z,4.77
2022-08-29T08:40:30.433Z,5.83
2022-08-29T08:43:03.687Z,5.53
2022-08-29T08:45:40.724Z,5.60
2022-08-29T08:48:13.848Z,6.07
2022-08-29T08:50:52.446Z,5.30
2022-08-29T08:53:30.001Z,6.40
2022-08-29T08:56:01.372Z,5.73
2022-08-29T08:58:37.337Z,6.00
2022-08-29T09:01:21.562Z,6.60
2022-08-29T09:04:06.181Z,5.53
2022-08-29T09:06:56.838Z,5.90
2022-08-29T09:09:35.776Z,6.23
2022-08-29T09:12:17.475Z,7.10
2022-08-29T09:15:00.345Z,6.17
2022-08-29T09:17:41.334Z,7.53
2022-08-29T09:20:17.037Z,7.90
2022-08-29T09:22:59.693Z,6.80
2022-08-29T09:25:36.035Z,6.77
2022-08-29T09:28:10.100Z,7.30
2022-08-29T09:30:42.303Z,6.80
2022-08-29T09:33:16.934Z,6.37
2022-08-29T09:35:51.962Z,6.90
2022-08-29T09:38:25.778Z,7.53
2022-08-29T09:40:57.679Z,6.83
2022-08-29T09:43:36.372Z,6.40
2022-08-29T09:46:24.990Z,7.30
2022-08-29T09:49:15.677Z,6.20
2022-08-29T09:51:51.029Z,6.97
2022-08-29T09:54:28.622Z,6.77
2022-08-29T09:57:07.628Z,6.60
2022-08-29T09:59:39.950Z,6.60
2022-08-29T10:02:23.731Z,6.57
2022-08-29T10:04:59.985Z,9.03
2022-08-29T10:07:37.696Z,6.90
2022-08-29T10:10:17.039Z,8.27
2022-08-29T10:12:53.212Z,10.00
2022-08-29T10:15:49.580Z,7.87
2022-08-29T10:18:28.808Z,9.40
2022-08-29T10:21:13.111Z,8.33
2022-08-29T10:24:00.418Z,9.80
2022-08-29T10:26:42.137Z,8.77
2022-08-29T10:29:29.641Z,8.57
2022-08-29T10:32:10.826Z,7.80
2022-08-29T10:34:58.212Z,7.20
2022-08-29T10:37:40.827Z,8.77
2022-08-29T10:40:17.688Z,7.50
2022-08-29T10:42:52.769Z,8.37
2022-08-29T10:45:34.548Z,6.97
2022-08-29T10:48:14.302Z,7.83
2022-08-29T10:50:53.317Z,6.83
2022-08-29T10:53:30.441Z,6.53
2022-08-29T10:56:06.616Z,6.07
2022-08-29T10:58:53.613Z,5.13
2022-08-29T11:01:27.993Z,5.33
2022-08-29T11:04:17.755Z,5.23
2022-08-29T11:06:55.821Z,7.53
2022-08-29T11:09:31.990Z,6.13
2022-08-29T11:12:09.356Z,6.10
2022-08-29T11:14:49.293Z,6.20
2022-08-29T11:17:21.866Z,6.70
2022-08-29T11:20:02.017Z,5.20
2022-08-29T11:22:38.523Z,5.50
2022-08-29T11:25:15.473Z,5.87
2022-08-29T11:27:57.631Z,5.73
2022-08-29T11:30:47.949Z,4.37
2022-08-29T11:33:35.328Z,5.13
2022-08-29T11:36:22.760Z,6.50
2022-08-29T11:39:26.009Z,6.00
2022-08-29T11:42:01.822Z,5.73
2022-08-29T11:44:36.538Z,5.90
2022-08-29T11:47:50.329Z,6.07
2022-08-29T11:50:33.680Z,5.70
2022-08-29T11:53:12.177Z,6.27
2022-08-29T11:56:07.681Z,5.80
2022-08-29T11:58:50.131Z,6.13
2022-08-29T12:01:49.744Z,6.30
2022-08-29T12:05:00.793Z,7.10
2022-08-29T12:07:39.328Z,5.43
2022-08-29T12:10:13.715Z,5.63
2022-08-29T12:12:49.483Z,4.87
2022-08-29T12:15:51.682Z,4.50
2022-08-29T12:18:36.615Z,5.57
2022-08-29T12:21:47.214Z,4.90
2022-08-29T12:24:57.054Z,3.77
2022-08-29T12:27:43.748Z,4.07
2022-08-29T12:30:16.175Z,4.80
2022-08-29T12:33:08.084Z,4.70
2022-08-29T12:36:08.927Z,4.23
2022-08-29T12:38:53.532Z,4.20
2022-08-29T12:41:36.453Z,4.00
2022-08-29T12:44:16.710Z,3.87
2022-08-29T12:46:54.284Z,4.07
2022-08-29T12:49:28.995Z,4.37
2022-08-29T12:52:01.911Z,3.93
2022-08-29T12:54:38.581Z,4.40
2022-08-29T12:57:11.134Z,4.43
2022-08-29T12:59:47.395Z,3.27
2022-08-29T13:02:27.295Z,2.80
2022-08-29T13:04:57.737Z,3.33
2022-08-29T13:07:30.367Z,3.27
2022-08-29T13:10:03.727Z,3.10
2022-08-29T13:12:35.685Z,3.53
2022-08-29T13:15:08.043Z,4.20
2022-08-29T13:17:40.207Z,4.23
2022-08-29T13:20:41.154Z,3.30
2022-08-29T13:23:18.390Z,3.90
2022-08-29T13:25:55.540Z,3.30
2022-08-29T13:28:33.363Z,3.37
2022-08-29T13:31:26.376Z,3.87
2022-08-29T13:34:22.078Z,2.93
2022-08-29T13:37:06.397Z,2.83
2022-08-29T13:39:43.561Z,3.30
2022-08-29T13:42:35.287Z,3.40
2022-08-29T13:45:24.494Z,3.60
2022-08-29T13:48:02.338Z,3.23
2022-08-29T13:50:34.023Z,3.50
2022-08-29T13:53:04.716Z,2.87
2022-08-29T13:55:36.009Z,3.20
2022-08-29T13:58:08.401Z,2.77
2022-08-29T14:00:38.280Z,2.80
2022-08-29T14:03:09.576Z,3.00
2022-08-29T14:05:39.900Z,2.90
2022-08-29T14:08:13.270Z,4.47
2022-08-29T14:10:43.245Z,3.40
2022-08-29T14:13:15.576Z,2.23
2022-08-29T14:15:45.508Z,3.47
2022-08-29T14:18:16.644Z,2.80
2022-08-29T14:20:46.457Z,2.23
2022-08-29T14:23:19.133Z,2.10
2022-08-29T14:25:52.405Z,2.50
2022-08-29T14:28:25.705Z,3.17
2022-08-29T14:30:56.650Z,2.80
2022-08-29T14:33:26.437Z,2.60
2022-08-29T14:35:56.119Z,3.17
2022-08-29T14:38:25.825Z,3.20
2022-08-29T14:40:55.624Z,2.60
2022-08-29T14:43:28.959Z,3.10
2022-08-29T14:45:59.846Z,2.80
2022-08-29T14:48:30.195Z,2.50
2022-08-29T14:51:00.955Z,2.43
2022-08-29T14:53:33.023Z,2.93
2022-08-29T14:56:06.846Z,2.50
2022-08-29T14:58:40.166Z,2.60
2022-08-29T15:01:10.415Z,2.67
2022-08-29T15:03:40.153Z,2.63
2022-08-29T15:06:10.870Z,2.57
2022-08-29T15:08:40.590Z,2.23
2022-08-29T15:11:11.876Z,2.53
2022-08-29T15:13:44.282Z,2.10
2022-08-29T15:16:15.905Z,2.33
2022-08-29T15:19:37.190Z,2.43
2022-08-29T15:21:36.552Z,2.70
2022-08-29T15:24:07.927Z,2.20
2022-08-29T15:26:37.752Z,3.60
2022-08-29T15:29:10.030Z,2.13
2022-08-29T15:31:40.837Z,2.37
2022-08-29T15:34:12.531Z,2.40
2022-08-29T15:36:45.937Z,2.90
2022-08-29T15:39:15.610Z,2.20
2022-08-29T15:41:46.400Z,1.97
2022-08-29T15:44:19.776Z,2.23
2022-08-29T15:46:51.029Z,2.37
2022-08-29T15:49:23.472Z,2.10
2022-08-29T15:51:55.475Z,2.27
2022-08-29T15:54:27.070Z,2.13
2022-08-29T15:56:57.001Z,1.87
2022-08-29T15:59:54.421Z,2.40
2022-08-29T16:02:20.986Z,2.20
2022-08-29T16:04:54.782Z,2.43
2022-08-29T16:07:28.656Z,2.30
2022-08-29T16:10:00.411Z,1.80
2022-08-29T16:12:31.493Z,1.83
2022-08-29T16:15:09.424Z,1.87
2022-08-29T16:17:39.769Z,2.23
2022-08-29T16:20:13.393Z,1.30
2022-08-29T16:22:44.047Z,2.33
2022-08-29T16:25:15.835Z,1.70
2022-08-29T16:27:45.978Z,1.97
2022-08-29T16:30:19.372Z,1.40
2022-08-29T16:32:52.311Z,1.70
2022-08-29T16:35:22.690Z,1.90
2022-08-29T16:38:02.304Z,1.40
2022-08-29T16:40:33.642Z,2.00
2022-08-29T16:43:04.401Z,1.67
2022-08-29T16:45:37.108Z,1.73
2022-08-29T16:48:17.065Z,1.63
2022-08-29T16:50:48.172Z,2.20
2022-08-29T16:53:19.377Z,1.40
2022-08-29T16:55:50.100Z,2.17
2022-08-29T16:58:32.267Z,1.40
2022-08-29T17:01:04.635Z,1.73
2022-08-29T17:03:34.471Z,1.63
2022-08-29T17:06:04.275Z,1.60
2022-08-29T17:08:32.524Z,1.40
2022-08-29T17:10:59.559Z,1.70
2022-08-29T17:13:26.770Z,1.50
2022-08-29T17:15:55.314Z,1.90
2022-08-29T17:18:27.601Z,1.87
2022-08-29T17:20:59.886Z,1.63
2022-08-29T17:23:29.732Z,2.03
2022-08-29T17:26:01.626Z,2.50
2022-08-29T17:28:33.843Z,1.37
2022-08-29T17:31:05.507Z,1.43
2022-08-29T17:33:38.979Z,2.00
2022-08-29T17:36:11.416Z,1.70
2022-08-29T17:38:45.104Z,1.77
2022-08-29T17:41:17.562Z,1.97
2022-08-29T17:43:49.395Z,1.67
2022-08-29T17:46:21.955Z,2.30
2022-08-29T17:48:54.578Z,2.17
2022-08-29T17:51:24.659Z,1.87
2022-08-29T17:53:54.694Z,2.30
2022-08-29T17:56:32.756Z,1.93
2022-08-29T17:59:05.885Z,1.80
2022-08-29T18:01:36.671Z,1.80
2022-08-29T18:04:12.347Z,1.70
2022-08-29T18:06:42.673Z,2.60
2022-08-29T18:09:12.962Z,1.80
2022-08-29T18:11:44.495Z,1.47
2022-08-29T18:14:14.795Z,1.97
2022-08-29T18:16:44.860Z,1.70
2022-08-29T18:19:18.429Z,1.60
2022-08-29T18:21:48.347Z,1.90
2022-08-29T18:24:18.499Z,1.87
2022-08-29T18:26:50.140Z,1.67
2022-08-29T18:29:20.826Z,2.20
2022-08-29T18:31:51.285Z,2.20
2022-08-29T18:34:24.326Z,1.53
2022-08-29T18:36:54.204Z,1.90
2022-08-29T18:39:24.136Z,1.90
2022-08-29T18:41:54.826Z,2.20
2022-08-29T18:44:24.705Z,1.90
2022-08-29T18:46:54.534Z,2.40
2022-08-29T18:49:48.310Z,1.87
2022-08-29T18:52:18.577Z,1.83
2022-08-29T18:54:48.229Z,1.90
2022-08-29T18:57:18.977Z,1.63
2022-08-29T18:59:48.755Z,2.63
2022-08-29T19:02:18.618Z,2.00
2022-08-29T19:04:52.133Z,2.23
2022-08-29T19:07:24.153Z,2.43
2022-08-29T19:09:54.707Z,2.20
2022-08-29T19:12:24.495Z,2.20
2022-08-29T19:14:54.339Z,2.30
2022-08-29T19:17:23.996Z,2.70
2022-08-29T19:20:10.398Z,2.33
2022-08-29T19:22:40.399Z,2.50
2022-08-29T19:25:11.547Z,2.30
2022-08-29T19:27:44.232Z,2.23
2022-08-29T19:30:18.436Z,2.97
2022-08-29T19:32:48.472Z,1.77
2022-08-29T19:35:21.997Z,1.80
2022-08-29T19:37:54.142Z,1.60
2022-08-29T19:40:26.047Z,1.90
2022-08-29T19:42:56.987Z,1.80
2022-08-29T19:45:27.381Z,1.60
2022-08-29T19:48:00.410Z,2.33
2022-08-29T19:50:32.895Z,2.63
2022-08-29T19:53:03.276Z,1.83
2022-08-29T19:55:35.120Z,2.17
2022-08-29T19:58:04.975Z,1.80
2022-08-29T20:00:35.721Z,1.43
2022-08-29T20:03:05.410Z,2.30
2022-08-29T20:05:38.600Z,2.30
2022-08-29T20:08:09.711Z,1.87
2022-08-29T20:10:41.007Z,1.93
2022-08-29T20:13:10.659Z,2.10
2022-08-29T20:15:40.511Z,1.90
2022-08-29T20:18:11.271Z,1.77
2022-08-29T20:20:48.611Z,1.83
2022-08-29T20:23:18.415Z,1.40
2022-08-29T20:25:49.203Z,1.60
2022-08-29T20:28:19.917Z,2.10
2022-08-29T20:30:49.995Z,1.80
2022-08-29T20:33:23.355Z,1.30
2022-08-29T20:36:08.617Z,1.20
2022-08-29T20:38:40.471Z,1.00
2022-08-29T20:41:10.193Z,1.57
2022-08-29T20:43:39.897Z,1.40
2022-08-29T20:46:10.660Z,1.10
2022-08-29T20:48:41.294Z,1.50
2022-08-29T20:51:14.602Z,1.50
2022-08-29T20:53:44.584Z,1.80
2022-08-29T20:56:15.335Z,1.23
2022-08-29T20:58:45.956Z,1.57
2022-08-29T21:01:15.678Z,1.53
2022-08-29T21:03:57.989Z,1.20
2022-08-29T21:06:31.376Z,1.60
2022-08-29T21:09:01.195Z,1.70
2022-08-29T21:11:31.911Z,1.50
2022-08-29T21:14:01.619Z,1.47
2022-08-29T21:16:32.504Z,1.13
2022-08-29T21:19:03.947Z,1.37
2022-08-29T21:21:36.192Z,1.00
2022-08-29T21:24:06.501Z,1.40
2022-08-29T21:26:37.635Z,1.50
2022-08-29T21:29:10.155Z,1.17
2022-08-29T21:31:41.314Z,1.50
2022-08-29T21:34:13.103Z,1.43
2022-08-29T21:36:47.610Z,1.60
2022-08-29T21:39:28.100Z,1.57
2022-08-29T21:42:02.938Z,1.33
2022-08-29T21:44:34.620Z,1.03
2022-08-29T21:47:04.402Z,1.63
2022-08-29T21:49:34.157Z,1.33
2022-08-29T21:52:07.142Z,1.60
2022-08-29T21:54:38.886Z,1.43
2022-08-29T21:57:08.395Z,1.23
2022-08-29T21:59:39.100Z,1.20
2022-08-29T22:02:12.186Z,2.00
2022-08-29T22:04:42.674Z,1.50
2022-08-29T22:07:16.192Z,1.60
2022-08-29T22:09:46.585Z,1.20
2022-08-29T22:12:16.250Z,1.63
2022-08-29T22:14:58.537Z,2.23
2022-08-29T22:17:29.315Z,1.50
2022-08-29T22:19:59.009Z,1.47
2022-08-29T22:22:32.318Z,1.63
2022-08-29T22:25:02.746Z,1.43
2022-08-29T22:27:32.468Z,1.40
2022-08-29T22:30:02.258Z,1.83
2022-08-29T22:32:35.892Z,1.63
2022-08-29T22:35:07.822Z,1.27
2022-08-29T22:37:40.116Z,1.20
2022-08-29T22:40:15.246Z,1.27
2022-08-29T22:42:45.521Z,1.60
2022-08-29T22:45:16.742Z,1.40
2022-08-29T22:47:49.106Z,1.47
2022-08-29T22:50:21.522Z,1.60
2022-08-29T22:52:57.482Z,1.00
2022-08-29T22:57:56.543Z,1.37
2022-08-29T23:00:28.989Z,1.53
2022-08-29T23:02:58.732Z,1.20
2022-08-29T23:05:28.682Z,1.20
2022-08-29T23:08:00.999Z,1.13
2022-08-29T23:10:30.686Z,1.40
2022-08-29T23:13:00.649Z,1.50
2022-08-29T23:15:30.552Z,1.47
2022-08-29T23:18:02.699Z,1.40
2022-08-29T23:20:32.346Z,1.37
2022-08-29T23:23:04.618Z,1.20
2022-08-29T23:25:38.272Z,1.50
2022-08-29T23:28:07.974Z,1.20
2022-08-29T23:30:37.669Z,1.33
2022-08-29T23:33:07.450Z,1.10
2022-08-29T23:35:38.735Z,1.50
2022-08-29T23:38:10.997Z,1.17
2022-08-29T23:40:40.780Z,1.23
2022-08-29T23:43:10.464Z,1.10
2022-08-29T23:45:40.717Z,1.20
2022-08-29T23:48:10.358Z,1.10
2022-08-29T23:50:39.991Z,1.70
2022-08-29T23:53:12.704Z,1.37
2022-08-29T23:55:43.544Z,1.30
2022-08-29T23:58:13.196Z,1.20
